Time;durP1;ratioP1;P1;durP2;ratioP2;P2;SDS_P1;SDS_P2;PMS_P1;PMS_P2;Temp;Humidity;BMP_temperature;BMP_pressure;BME280_temperature;BME280_humidity;BME280_pressure;Samples;Min_cycle;Max_cycle;Signal;HPM_P1;HPM_P2
2023/03/02 00:02:38;;;;;;;58.10;35.50;;;;;;;-2.32;72.80;101459.24;215813;1254;60569;-73
2023/03/02 00:07:34;;;;;;;64.70;37.50;;;;;;;-2.37;72.93;101451.73;215855;1254;60484;-73
2023/03/02 00:12:29;;;;;;;65.60;35.70;;;;;;;-2.43;73.17;101449.16;215912;1254;66346;-73
2023/03/02 00:17:26;;;;;;;59.20;34.90;;;;;;;-2.47;73.24;101453.40;216085;1255;60497;-73
2023/03/02 00:22:19;;;;;;;57.10;34.50;;;;;;;-2.53;73.05;101456.31;215953;1257;72813;-73
2023/03/02 00:27:12;;;;;;;60.50;34.80;;;;;;;-2.56;73.33;101453.70;215748;1256;60585;-73
2023/03/02 00:32:05;;;;;;;52.50;32.80;;;;;;;-2.59;73.42;101455.81;215815;1257;60554;-73
2023/03/02 00:36:58;;;;;;;53.40;31.80;;;;;;;-2.61;73.72;101452.41;215814;1254;60510;-73
2023/03/02 00:41:51;;;;;;;57.00;34.50;;;;;;;-2.65;73.55;101457.91;215854;1255;60496;-74
2023/03/02 00:46:45;;;;;;;57.20;35.80;;;;;;;-2.70;73.44;101451.76;215912;1254;61032;-74
2023/03/02 00:51:38;;;;;;;60.80;35.70;;;;;;;-2.75;73.54;101450.98;215795;1256;71766;-73
2023/03/02 00:56:31;;;;;;;55.40;33.40;;;;;;;-2.79;73.66;101450.48;215705;1255;60516;-73
2023/03/02 01:01:24;;;;;;;60.20;35.70;;;;;;;-2.82;73.52;101451.94;215918;1257;66780;-74
2023/03/02 01:06:21;;;;;;;59.20;33.60;;;;;;;-2.84;73.85;101445.86;215972;1256;61275;-73
2023/03/02 01:11:19;;;;;;;58.90;34.90;;;;;;;-2.83;73.90;101441.36;216036;1254;73336;-74
2023/03/02 01:16:12;;;;;;;59.90;34.80;;;;;;;-2.85;73.74;101440.61;215548;1255;72974;-73
2023/03/02 01:21:11;;;;;;;62.00;36.30;;;;;;;-2.90;73.58;101429.05;215713;1254;61273;-73
2023/03/02 01:26:06;;;;;;;54.30;32.20;;;;;;;-2.92;74.06;101429.20;215841;1254;66820;-73
2023/03/02 01:31:00;;;;;;;57.40;34.00;;;;;;;-2.96;73.38;101429.73;215806;1254;61262;-72
2023/03/02 01:35:52;;;;;;;63.10;34.10;;;;;;;-3.00;73.81;101427.50;215789;1259;74928;-73
2023/03/02 01:40:45;;;;;;;58.90;34.70;;;;;;;-3.04;73.41;101428.59;215868;1255;61298;-73
2023/03/02 01:45:47;;;;;;;57.00;32.80;;;;;;;-3.10;73.46;101428.41;215781;1254;61250;-73
2023/03/02 01:50:45;;;;;;;60.70;37.20;;;;;;;-3.04;74.11;101429.93;215819;1254;65786;-72
2023/03/02 01:55:39;;;;;;;64.40;35.80;;;;;;;-2.86;74.78;101427.88;215889;1254;61255;-73
2023/03/02 02:00:37;;;;;;;63.90;38.20;;;;;;;-2.51;76.63;101419.65;215810;1258;74315;-73
2023/03/02 02:05:29;;;;;;;68.30;38.50;;;;;;;-2.15;77.09;101413.82;215874;1258;72565;-73
2023/03/02 02:10:22;;;;;;;82.80;41.80;;;;;;;-1.88;77.57;101410.70;215923;1254;61839;-73
2023/03/02 02:15:17;;;;;;;79.80;41.50;;;;;;;-1.68;77.80;101409.22;215728;1257;67912;-73
2023/03/02 02:20:28;;;;;;;67.80;38.00;;;;;;;-1.51;77.86;101410.81;215546;1259;61274;-73
2023/03/02 02:25:44;;;;;;;80.00;43.20;;;;;;;-1.38;77.96;101415.73;215668;1256;106770;-73
2023/03/02 02:30:40;;;;;;;71.00;37.80;;;;;;;-1.27;78.10;101415.91;215692;1257;71426;-73
2023/03/02 02:35:37;;;;;;;73.80;39.70;;;;;;;-1.16;78.43;101415.86;215778;1258;61785;-73
2023/03/02 02:40:53;;;;;;;82.10;41.60;;;;;;;-1.07;78.57;101413.27;215675;1257;66236;-73
2023/03/02 02:45:53;;;;;;;78.90;39.40;;;;;;;-1.00;78.63;101413.67;215708;1257;61317;-73
2023/03/02 02:50:47;;;;;;;48.90;28.40;;;;;;;-0.94;78.59;101412.35;215691;1254;72753;-73
2023/03/02 02:55:42;;;;;;;71.80;39.00;;;;;;;-0.89;79.02;101411.55;215571;1259;71544;-73
2023/03/02 03:00:36;;;;;;;60.30;32.20;;;;;;;-0.84;79.03;101409.34;215653;1254;61253;-73
2023/03/02 03:05:29;;;;;;;56.20;31.00;;;;;;;-0.82;79.11;101402.89;215632;1255;65533;-73
2023/03/02 03:10:21;;;;;;;57.50;30.70;;;;;;;-0.80;79.29;101398.10;215571;1257;61621;-73
2023/03/02 03:15:14;;;;;;;59.90;29.60;;;;;;;-0.78;79.08;101396.08;215721;1257;61366;-73
2023/03/02 03:20:09;;;;;;;62.70;31.70;;;;;;;-0.74;79.22;101396.11;215460;1254;61369;-73
2023/03/02 03:25:07;;;;;;;68.10;34.80;;;;;;;-0.71;79.19;101396.34;215844;1254;61443;-73
2023/03/02 03:30:00;;;;;;;65.60;33.70;;;;;;;-0.68;79.35;101394.04;215826;1257;65503;-73
2023/03/02 03:34:54;;;;;;;58.70;28.70;;;;;;;-0.65;79.42;101385.23;215757;1254;61332;-73
2023/03/02 03:39:51;;;;;;;39.10;21.20;;;;;;;-0.62;79.27;101383.89;215734;1254;73957;-73
2023/03/02 03:44:44;;;;;;;60.60;30.10;;;;;;;-0.61;79.33;101383.48;215716;1259;72551;-73
2023/03/02 03:49:37;;;;;;;61.60;28.90;;;;;;;-0.58;79.53;101386.92;215700;1254;61378;-73
2023/03/02 03:54:30;;;;;;;59.20;31.60;;;;;;;-0.53;79.53;101386.75;215937;1254;66512;-73
2023/03/02 03:59:25;;;;;;;61.90;29.60;;;;;;;-0.50;79.50;101385.45;215779;1258;61235;-73
2023/03/02 04:04:33;;;;;;;58.30;29.00;;;;;;;-0.47;79.51;101384.48;215802;1257;74198;-73
2023/03/02 04:09:36;;;;;;;62.70;31.30;;;;;;;-0.45;79.56;101383.58;215607;1257;70773;-73
2023/03/02 04:14:30;;;;;;;62.60;28.20;;;;;;;-0.45;79.55;101374.23;215670;1254;61273;-73
2023/03/02 04:19:24;;;;;;;56.80;27.30;;;;;;;-0.43;79.44;101374.20;215649;1257;65934;-73
2023/03/02 04:24:22;;;;;;;57.20;28.90;;;;;;;-0.42;79.72;101378.39;215574;1257;61393;-73
2023/03/02 04:29:17;;;;;;;61.80;30.30;;;;;;;-0.41;79.62;101376.44;215730;1259;74808;-73
2023/03/02 04:34:10;;;;;;;62.50;32.20;;;;;;;-0.39;79.70;101379.44;215748;1254;72602;-73
2023/03/02 04:39:08;;;;;;;58.10;31.30;;;;;;;-0.37;79.68;101375.29;215608;1255;61435;-73
2023/03/02 04:44:00;;;;;;;61.50;30.80;;;;;;;-0.36;79.69;101371.73;215722;1254;65407;-73
2023/03/02 04:48:54;;;;;;;64.70;32.20;;;;;;;-0.38;79.56;101368.75;215742;1254;62045;-73
2023/03/02 04:53:47;;;;;;;59.90;28.40;;;;;;;-0.38;79.79;101371.99;215789;1258;73381;-73
2023/03/02 04:58:39;;;;;;;57.50;30.40;;;;;;;-0.37;79.81;101373.56;215772;1254;61759;-73
2023/03/02 05:03:32;;;;;;;57.30;28.70;;;;;;;-0.39;79.65;101375.33;215662;1259;61334;-74
2023/03/02 05:08:25;;;;;;;49.60;26.10;;;;;;;-0.40;79.83;101379.89;215697;1260;61331;-73
2023/03/02 05:13:18;;;;;;;48.90;25.30;;;;;;;-0.40;79.90;101380.73;215631;1258;61260;-73
2023/03/02 05:18:12;;;;;;;50.20;25.60;;;;;;;-0.40;80.04;101389.60;215734;1255;61243;-73
2023/03/02 05:23:08;;;;;;;41.50;21.90;;;;;;;-0.36;80.27;101388.66;215700;1254;61320;-73
2023/03/02 05:28:02;;;;;;;61.00;31.10;;;;;;;-0.33;80.20;101390.38;215397;1254;61340;-74
2023/03/02 05:32:56;;;;;;;55.90;30.00;;;;;;;-0.30;80.23;101397.25;215602;1254;65803;-73
2023/03/02 05:37:49;;;;;;;49.70;26.90;;;;;;;-0.26;80.33;101395.79;215682;1254;61254;-73
2023/03/02 05:42:42;;;;;;;55.70;29.00;;;;;;;-0.23;80.49;101397.92;215435;1254;74799;-73
2023/03/02 05:47:35;;;;;;;58.50;28.10;;;;;;;-0.18;80.20;101404.23;215380;1254;70662;-74
2023/03/02 05:52:40;;;;;;;52.80;25.30;;;;;;;-0.15;80.53;101406.13;215522;1256;61242;-73
2023/03/02 05:57:34;;;;;;;54.90;27.80;;;;;;;-0.14;80.31;101415.30;215729;1254;64886;-73
2023/03/02 06:02:26;;;;;;;54.80;26.80;;;;;;;-0.10;80.40;101420.65;215606;1254;61178;-74
2023/03/02 06:07:19;;;;;;;56.10;28.80;;;;;;;-0.05;80.44;101429.39;215850;1254;61259;-73
2023/03/02 06:12:12;;;;;;;51.40;27.60;;;;;;;0.00;80.48;101430.06;215651;1254;61298;-74
2023/03/02 06:17:05;;;;;;;54.90;29.40;;;;;;;0.03;80.52;101428.74;215843;1254;61349;-73
2023/03/02 06:21:58;;;;;;;53.90;28.30;;;;;;;0.08;80.56;101431.94;215579;1254;61862;-73
2023/03/02 06:26:53;;;;;;;61.40;30.10;;;;;;;0.12;80.62;101436.66;215361;1257;61230;-73
2023/03/02 06:31:46;;;;;;;57.40;29.40;;;;;;;0.15;80.54;101443.09;215766;1254;74266;-73
2023/03/02 06:36:39;;;;;;;54.80;29.00;;;;;;;0.19;80.45;101449.98;215548;1259;61385;-73
2023/03/02 06:41:33;;;;;;;60.00;31.50;;;;;;;0.24;80.58;101445.88;215467;1254;61295;-73
2023/03/02 06:46:26;;;;;;;65.00;35.70;;;;;;;0.29;80.70;101447.73;215558;1254;65917;-73
2023/03/02 06:51:19;;;;;;;55.80;30.20;;;;;;;0.33;80.63;101451.80;215664;1254;61310;-73
2023/03/02 06:56:11;;;;;;;63.70;34.40;;;;;;;0.35;80.69;101450.59;215728;1259;61216;-73
2023/03/02 07:01:06;;;;;;;56.50;32.00;;;;;;;0.39;80.79;101456.46;215659;1254;61385;-72
2023/03/02 07:05:59;;;;;;;57.10;31.00;;;;;;;0.44;80.84;101455.64;215629;1254;62319;-73
2023/03/02 07:10:52;;;;;;;47.90;25.30;;;;;;;0.50;80.83;101460.97;215707;1254;65399;-73
2023/03/02 07:15:45;;;;;;;52.80;30.70;;;;;;;0.53;80.95;101459.64;215841;1257;61914;-73
2023/03/02 07:20:38;;;;;;;53.40;29.30;;;;;;;0.54;80.74;101451.59;215836;1254;61295;-73
2023/03/02 07:25:31;;;;;;;55.50;28.10;;;;;;;0.59;80.62;101449.17;215883;1257;61304;-73
2023/03/02 07:30:25;;;;;;;59.80;28.80;;;;;;;0.63;80.70;101442.80;215728;1254;61239;-72
2023/03/02 07:35:18;;;;;;;47.40;27.70;;;;;;;0.69;80.73;101439.30;215932;1254;65934;-73
2023/03/02 07:40:12;;;;;;;46.80;23.40;;;;;;;0.79;80.70;101448.30;215727;1254;61289;-73
2023/03/02 07:45:06;;;;;;;47.50;27.00;;;;;;;0.85;80.66;101440.35;215818;1258;74623;-73
2023/03/02 07:49:59;;;;;;;50.50;28.00;;;;;;;0.94;80.31;101439.58;215797;1254;73140;-73
2023/03/02 07:54:51;;;;;;;53.50;27.80;;;;;;;1.01;80.33;101438.89;216081;1258;61244;-73
2023/03/02 07:59:45;;;;;;;40.00;22.80;;;;;;;1.05;80.32;101440.67;215754;1254;61269;-73
2023/03/02 08:04:37;;;;;;;46.20;25.20;;;;;;;1.04;80.46;101433.63;216718;1254;61322;-74
2023/03/02 08:09:30;;;;;;;47.70;27.10;;;;;;;1.12;80.77;101434.50;215708;1258;61278;-73
2023/03/02 08:14:23;;;;;;;48.20;25.40;;;;;;;1.23;80.51;101433.15;215851;1254;61279;-73
2023/03/02 08:19:15;;;;;;;43.80;24.00;;;;;;;1.34;80.76;101426.03;215744;1254;61301;-73
2023/03/02 08:24:09;;;;;;;42.90;25.20;;;;;;;1.43;80.28;101416.52;215813;1254;61295;-73
2023/03/02 08:29:02;;;;;;;31.60;18.70;;;;;;;1.55;80.52;101410.83;215868;1254;61451;-73
2023/03/02 08:33:54;;;;;;;38.60;20.60;;;;;;;1.66;79.88;101407.57;215855;1254;61276;-73
2023/03/02 08:38:49;;;;;;;32.30;18.50;;;;;;;1.79;80.14;101408.92;215818;1254;61346;-73
2023/03/02 08:43:42;;;;;;;36.40;21.20;;;;;;;2.00;80.09;101408.48;215798;1254;61334;-73
2023/03/02 08:48:34;;;;;;;31.10;18.00;;;;;;;2.17;79.54;101408.73;215797;1254;65776;-73
2023/03/02 08:53:30;;;;;;;32.60;21.00;;;;;;;2.29;79.24;101409.93;215775;1254;61389;-73
2023/03/02 08:58:23;;;;;;;37.30;21.20;;;;;;;2.37;79.10;101409.71;215822;1254;74620;-73
2023/03/02 09:03:16;;;;;;;35.90;21.30;;;;;;;2.45;79.17;101412.13;215715;1254;61274;-73
2023/03/02 09:08:09;;;;;;;34.90;18.20;;;;;;;2.54;79.34;101407.36;215977;1254;61288;-73
2023/03/02 09:13:02;;;;;;;34.00;20.70;;;;;;;2.65;79.01;101414.50;215924;1254;61382;-73
2023/03/02 09:17:55;;;;;;;35.20;21.10;;;;;;;2.72;78.83;101410.80;215883;1254;61333;-74
2023/03/02 09:22:49;;;;;;;24.20;16.60;;;;;;;2.77;78.93;101408.55;215691;1254;61266;-73
2023/03/02 09:27:42;;;;;;;19.60;12.90;;;;;;;2.82;78.82;101410.78;215840;1254;71870;-73
2023/03/02 09:32:35;;;;;;;18.90;12.30;;;;;;;2.87;78.12;101405.90;215821;1254;61311;-74
2023/03/02 09:37:31;;;;;;;17.20;11.20;;;;;;;2.89;78.11;101402.41;215853;1254;61359;-74
2023/03/02 09:43:21;;;;;;;22.40;14.90;;;;;;;2.93;78.11;101405.92;215845;1254;61478;-73
2023/03/02 09:48:31;;;;;;;21.90;13.40;;;;;;;2.97;77.98;101395.04;214670;1262;74569;-73
2023/03/02 09:53:23;;;;;;;22.60;14.70;;;;;;;3.03;77.58;101387.85;214688;1265;73661;-73
2023/03/02 09:58:20;;;;;;;23.30;14.60;;;;;;;3.14;77.37;101386.21;214735;1263;61245;-73
2023/03/02 10:03:18;;;;;;;16.00;10.60;;;;;;;3.16;77.25;101386.84;214696;1263;67151;-73
2023/03/02 10:08:15;;;;;;;13.90;8.80;;;;;;;3.19;77.12;101384.32;214857;1262;61890;-74
2023/03/02 10:13:28;;;;;;;17.20;10.80;;;;;;;3.26;76.83;101384.85;214644;1263;74616;-75
2023/03/02 10:18:28;;;;;;;26.20;16.10;;;;;;;3.24;76.73;101378.38;215439;1254;73656;-74
2023/03/02 10:23:33;;;;;;;20.90;14.00;;;;;;;3.21;77.07;101377.91;215902;1254;61237;-74
2023/03/02 10:28:32;;;;;;;28.50;17.10;;;;;;;3.22;76.85;101372.14;215944;1254;67100;-74
2023/03/02 10:33:27;;;;;;;23.90;15.00;;;;;;;3.26;77.06;101374.23;215836;1254;61308;-73
2023/03/02 10:38:25;;;;;;;22.40;14.30;;;;;;;3.25;76.50;101372.65;215978;1257;74602;-74
2023/03/02 10:43:20;;;;;;;;;;;;;;;3.22;76.58;101368.89;215834;1254;72716;-74
2023/03/02 10:48:14;;;;;;;11.10;8.20;;;;;;;3.12;76.37;101365.17;215861;1254;61234;-74
2023/03/02 10:53:08;;;;;;;19.00;12.40;;;;;;;3.04;76.48;101359.83;215882;1254;67066;-73
2023/03/02 10:58:19;;;;;;;17.10;11.70;;;;;;;3.03;76.58;101357.50;215915;1255;61330;-73
2023/03/02 11:03:23;;;;;;;16.70;11.00;;;;;;;2.94;76.37;101354.42;215915;1256;74829;-73
2023/03/02 11:08:30;;;;;;;18.70;10.70;;;;;;;2.91;76.54;101348.92;215901;1254;71499;-73
2023/03/02 11:13:28;;;;;;;19.90;12.40;;;;;;;2.90;76.22;101346.17;215913;1257;61297;-73
2023/03/02 11:18:25;;;;;;;17.20;11.20;;;;;;;2.91;76.52;101341.42;215886;1254;66342;-74
2023/03/02 11:23:34;;;;;;;19.00;12.90;;;;;;;2.88;76.07;101337.83;215900;1257;61295;-74
2023/03/02 11:29:06;;;;;;;18.40;11.60;;;;;;;2.88;76.27;101332.33;215469;1256;74783;-73
2023/03/02 11:34:34;;;;;;;20.60;12.80;;;;;;;2.87;76.46;101330.07;214508;1264;71552;-73
2023/03/02 11:39:38;;;;;;;19.80;12.40;;;;;;;2.82;76.42;101329.27;214517;1264;61407;-74
2023/03/02 11:44:45;;;;;;;;;;;;;;;2.78;76.07;101334.48;214512;1264;66062;-74
2023/03/02 11:49:43;;;;;;;25.10;14.70;;;;;;;2.75;75.80;101340.27;214549;1264;61382;-74
2023/03/02 11:54:44;;;;;;;23.80;14.30;;;;;;;2.70;75.86;101335.06;214537;1264;72807;-74
2023/03/02 11:59:38;;;;;;;26.90;17.30;;;;;;;2.70;76.24;101332.83;214622;1264;72737;-74
2023/03/02 12:04:34;;;;;;;24.90;16.90;;;;;;;2.70;76.19;101328.02;214520;1263;61270;-73
2023/03/02 12:09:35;;;;;;;26.00;17.10;;;;;;;2.75;76.38;101321.78;214929;1256;65856;-74
2023/03/02 12:14:41;;;;;;;26.30;15.90;;;;;;;2.78;76.10;101319.77;215453;1256;61258;-74
2023/03/02 12:19:44;;;;;;;24.60;17.00;;;;;;;2.83;76.16;101315.60;215490;1256;73387;-73
2023/03/02 12:24:40;;;;;;;23.30;14.90;;;;;;;2.88;75.97;101308.52;215652;1254;71723;-74
2023/03/02 12:29:45;;;;;;;27.60;17.60;;;;;;;2.91;75.46;101306.13;215918;1254;61287;-73
2023/03/02 12:34:44;;;;;;;23.60;16.00;;;;;;;3.05;75.85;101300.27;215907;1254;67154;-74
2023/03/02 12:40:34;;;;;;;24.80;16.00;;;;;;;3.17;75.45;101296.98;215921;1254;61239;-74
2023/03/02 12:45:41;;;;;;;22.30;14.20;;;;;;;3.21;75.33;101294.48;214773;1262;72812;-74
2023/03/02 12:50:39;;;;;;;21.40;13.70;;;;;;;3.20;74.65;101290.45;214830;1262;71872;-74
2023/03/02 12:55:33;;;;;;;21.00;13.00;;;;;;;3.15;74.74;101281.77;214966;1261;61382;-73
2023/03/02 13:00:29;;;;;;;21.80;12.50;;;;;;;3.17;74.56;101276.44;214881;1260;65815;-74
2023/03/02 13:05:34;;;;;;;15.50;10.70;;;;;;;3.26;74.44;101270.56;214837;1262;61363;-74
2023/03/02 13:10:35;;;;;;;15.70;11.00;;;;;;;3.37;74.14;101269.16;214765;1262;73817;-74
2023/03/02 13:15:29;;;;;;;13.70;9.70;;;;;;;3.46;74.02;101267.75;215457;1254;71541;-73
2023/03/02 13:20:24;;;;;;;12.70;9.10;;;;;;;3.47;73.52;101263.32;215883;1254;61352;-74
2023/03/02 13:25:27;;;;;;;13.60;9.90;;;;;;;3.47;73.67;101259.52;215697;1254;65998;-74
2023/03/02 13:30:29;;;;;;;15.10;10.40;;;;;;;3.48;73.56;101254.11;215938;1253;61260;-74
2023/03/02 13:35:26;;;;;;;14.30;10.30;;;;;;;3.48;73.23;101252.40;215882;1258;74570;-73
2023/03/02 13:40:21;;;;;;;15.70;10.00;;;;;;;3.47;73.40;101250.98;215864;1254;72588;-74
2023/03/02 13:45:29;;;;;;;12.20;8.70;;;;;;;3.48;73.35;101246.73;215929;1254;61332;-74
2023/03/02 13:50:23;;;;;;;;;;;;;;;3.45;73.25;101239.92;215920;1254;65271;-74
2023/03/02 13:55:18;;;;;;;13.00;8.50;;;;;;;3.43;73.18;101235.00;215931;1256;61276;-74
2023/03/02 14:00:15;;;;;;;11.70;9.20;;;;;;;3.42;72.88;101228.95;215944;1256;74602;-74
2023/03/02 14:05:20;;;;;;;14.60;9.90;;;;;;;3.40;72.78;101226.95;215934;1254;72125;-74
2023/03/02 14:10:16;;;;;;;13.00;9.90;;;;;;;3.38;72.77;101219.15;215888;1254;62152;-74
2023/03/02 14:15:14;;;;;;;15.10;10.40;;;;;;;3.37;72.74;101204.72;215889;1256;68236;-74
2023/03/02 14:20:10;;;;;;;14.90;10.50;;;;;;;3.41;72.73;101198.73;215892;1254;61243;-74
2023/03/02 14:25:03;;;;;;;14.80;11.20;;;;;;;3.46;72.53;101186.13;215907;1254;134752;-74
2023/03/02 14:29:56;;;;;;;18.30;10.70;;;;;;;3.49;72.17;101176.88;215876;1254;71001;-74
2023/03/02 14:34:49;;;;;;;15.10;10.60;;;;;;;3.51;72.47;101172.54;216010;1254;61253;-74
2023/03/02 14:39:50;;;;;;;19.90;11.80;;;;;;;3.53;72.66;101171.41;215837;1254;61251;-74
2023/03/02 14:44:48;;;;;;;18.60;12.60;;;;;;;3.51;72.28;101169.81;216001;1255;61247;-74
2023/03/02 14:49:41;;;;;;;19.50;11.30;;;;;;;3.49;72.26;101162.84;215830;1254;74661;-74
2023/03/02 14:54:43;;;;;;;18.50;10.80;;;;;;;3.45;72.13;101162.94;215928;1254;61376;-74
2023/03/02 14:59:36;;;;;;;16.00;10.10;;;;;;;3.37;72.01;101161.36;215954;1254;61237;-74
2023/03/02 15:04:29;;;;;;;15.40;10.90;;;;;;;3.29;71.76;101159.52;215913;1254;69468;-73
2023/03/02 15:09:21;;;;;;;27.50;18.80;;;;;;;3.20;71.63;101156.48;215939;1257;61358;-73
2023/03/02 15:14:14;;;;;;;19.10;13.10;;;;;;;3.15;71.67;101151.42;215873;1254;61355;-74
2023/03/02 15:19:08;;;;;;;16.00;11.20;;;;;;;3.12;71.83;101146.30;215834;1257;61295;-73
2023/03/02 15:24:01;;;;;;;20.30;13.30;;;;;;;3.07;71.46;101143.98;215895;1254;61244;-73
2023/03/02 15:28:54;;;;;;;19.50;12.80;;;;;;;3.00;71.57;101143.75;215982;1254;61349;-74
2023/03/02 15:33:47;;;;;;;28.80;18.00;;;;;;;2.95;71.73;101142.15;215868;1254;61260;-74
2023/03/02 15:38:39;;;;;;;36.00;20.60;;;;;;;2.92;71.63;101142.45;215909;1256;61245;-74
2023/03/02 15:43:33;;;;;;;32.30;20.40;;;;;;;2.86;71.80;101140.11;215895;1254;62018;-74
2023/03/02 15:48:25;;;;;;;20.50;12.20;;;;;;;2.79;71.49;101136.65;215942;1254;61260;-74
2023/03/02 15:53:18;;;;;;;20.20;13.00;;;;;;;2.71;71.60;101138.06;215924;1254;61340;-73
2023/03/02 15:58:11;;;;;;;20.60;13.50;;;;;;;2.61;71.62;101133.62;215911;1254;61384;-73
2023/03/02 16:03:04;;;;;;;17.30;12.30;;;;;;;2.49;71.87;101136.84;215923;1253;61413;-73
2023/03/02 16:07:57;;;;;;;16.40;11.50;;;;;;;2.29;71.82;101131.95;215944;1256;61286;-73
2023/03/02 16:12:49;;;;;;;16.20;11.50;;;;;;;2.07;72.11;101138.90;215964;1254;61343;-73
2023/03/02 16:17:42;;;;;;;17.70;11.10;;;;;;;1.83;72.34;101134.64;215966;1254;61263;-73
2023/03/02 16:22:35;;;;;;;16.10;11.00;;;;;;;1.60;72.38;101135.50;215875;1254;61733;-73
2023/03/02 16:27:29;;;;;;;25.30;12.40;;;;;;;1.37;72.58;101140.61;215884;1254;61295;-73
2023/03/02 16:32:21;;;;;;;19.70;12.40;;;;;;;1.15;72.61;101133.79;215832;1254;61420;-74
2023/03/02 16:37:14;;;;;;;17.20;10.40;;;;;;;0.94;72.79;101135.36;215900;1254;61483;-73
2023/03/02 16:42:07;;;;;;;16.30;11.10;;;;;;;0.69;72.92;101127.38;215962;1254;62410;-72
2023/03/02 16:46:59;;;;;;;16.60;11.40;;;;;;;0.48;73.26;101127.70;215937;1254;61285;-73
2023/03/02 16:51:57;;;;;;;17.60;10.90;;;;;;;0.29;73.14;101124.66;215779;1254;61275;-73
2023/03/02 16:56:50;;;;;;;18.40;11.90;;;;;;;0.12;73.34;101125.75;215754;1256;71369;-72
2023/03/02 17:01:43;;;;;;;14.50;10.80;;;;;;;-0.03;73.69;101128.04;215817;1254;61333;-72
2023/03/02 17:06:36;;;;;;;13.40;10.30;;;;;;;-0.19;73.56;101127.27;215954;1254;61228;-73
2023/03/02 17:11:31;;;;;;;17.60;11.70;;;;;;;-0.34;73.71;101128.66;215844;1257;61282;-73
2023/03/02 17:16:25;;;;;;;16.60;10.40;;;;;;;-0.46;73.64;101134.36;215930;1254;74599;-72
2023/03/02 17:21:18;;;;;;;16.10;10.80;;;;;;;-0.60;73.87;101136.95;215842;1254;72629;-73
2023/03/02 17:26:10;;;;;;;16.10;11.00;;;;;;;-0.68;74.10;101134.70;215971;1254;61292;-73
2023/03/02 17:31:03;;;;;;;16.10;10.70;;;;;;;-0.75;74.37;101128.95;215840;1254;61212;-72
2023/03/02 17:35:56;;;;;;;16.80;10.30;;;;;;;-0.84;74.47;101122.70;215884;1258;61400;-72
2023/03/02 17:40:49;;;;;;;16.60;10.30;;;;;;;-0.95;74.50;101122.16;215791;1254;61884;-73
2023/03/02 17:45:41;;;;;;;14.10;10.40;;;;;;;-1.06;74.28;101120.52;215889;1254;61246;-72
2023/03/02 17:51:10;;;;;;;15.70;10.50;;;;;;;-1.15;74.56;101123.31;215757;1254;61254;-73
2023/03/02 17:56:03;;;;;;;15.60;9.70;;;;;;;-1.23;74.73;101119.52;214429;1262;65825;-73
2023/03/02 18:00:56;;;;;;;18.00;11.90;;;;;;;-1.28;74.99;101129.14;214024;1265;62145;-73
2023/03/02 18:05:49;;;;;;;17.40;10.80;;;;;;;-1.30;75.05;101121.20;214468;1264;61417;-73
2023/03/02 18:10:42;;;;;;;16.70;10.50;;;;;;;-1.38;75.01;101111.65;214351;1262;61409;-73
2023/03/02 18:15:35;;;;;;;22.60;11.80;;;;;;;-1.46;74.98;101108.33;214488;1266;61888;-73
2023/03/02 18:20:28;;;;;;;22.30;12.60;;;;;;;-1.51;75.31;101107.98;214563;1267;61301;-73
2023/03/02 18:25:21;;;;;;;19.40;11.60;;;;;;;-1.57;75.20;101110.98;215381;1254;61353;-73
2023/03/02 18:30:14;;;;;;;22.80;15.10;;;;;;;-1.62;75.26;101106.31;216000;1256;61246;-73
2023/03/02 18:35:07;;;;;;;22.10;15.10;;;;;;;-1.68;75.44;101112.69;215897;1255;61256;-73
2023/03/02 18:40:01;;;;;;;21.50;13.80;;;;;;;-1.71;75.40;101108.59;215721;1258;61436;-72
2023/03/02 18:44:54;;;;;;;23.90;15.40;;;;;;;-1.78;75.33;101114.05;215839;1257;66886;-72
2023/03/02 18:49:46;;;;;;;24.00;15.50;;;;;;;-1.83;75.53;101121.13;215797;1258;61260;-73
2023/03/02 18:54:40;;;;;;;23.60;14.90;;;;;;;-1.84;75.88;101120.70;215839;1253;61326;-73
2023/03/02 18:59:35;;;;;;;21.80;14.50;;;;;;;-1.86;76.02;101116.70;215823;1257;72656;-73
2023/03/02 19:04:29;;;;;;;23.60;15.80;;;;;;;-1.91;75.79;101114.80;216016;1257;61266;-73
2023/03/02 19:09:23;;;;;;;29.80;18.90;;;;;;;-1.97;75.88;101116.09;215678;1254;67065;-72
2023/03/02 19:14:16;;;;;;;25.90;18.30;;;;;;;-2.02;75.74;101109.06;215924;1256;61677;-73
2023/03/02 19:19:09;;;;;;;29.60;20.10;;;;;;;-2.07;76.01;101102.27;215697;1256;76836;-73
2023/03/02 19:24:02;;;;;;;28.40;20.20;;;;;;;-2.12;75.84;101102.95;215925;1256;70717;-73
2023/03/02 19:28:55;;;;;;;32.30;20.20;;;;;;;-2.17;75.87;101099.15;215837;1256;61251;-73
2023/03/02 19:33:48;;;;;;;42.30;25.70;;;;;;;-2.22;76.11;101103.51;215905;1258;61260;-73
2023/03/02 19:38:43;;;;;;;37.60;24.60;;;;;;;-2.27;75.74;101100.27;215812;1257;61274;-73
2023/03/02 19:43:37;;;;;;;37.00;23.60;;;;;;;-2.31;75.96;101097.25;215686;1254;72540;-73
2023/03/02 19:48:30;;;;;;;48.20;30.20;;;;;;;-2.36;76.00;101101.35;215498;1254;72555;-73
2023/03/02 19:53:24;;;;;;;51.30;31.40;;;;;;;-2.38;76.04;101100.50;215800;1257;61143;-73
2023/03/02 19:58:18;;;;;;;62.30;36.80;;;;;;;-2.41;75.98;101103.66;215642;1254;68166;-73
2023/03/02 20:03:11;;;;;;;61.90;37.90;;;;;;;-2.43;75.98;101104.84;215727;1259;61349;-73
2023/03/02 20:08:06;;;;;;;73.30;43.40;;;;;;;-2.49;75.83;101099.33;215842;1255;74498;-73
2023/03/02 20:12:59;;;;;;;61.90;37.70;;;;;;;-2.54;76.16;101106.77;215758;1254;72436;-73
2023/03/02 20:17:52;;;;;;;67.40;39.70;;;;;;;-2.57;76.06;101104.64;215610;1256;61215;-74
2023/03/02 20:22:45;;;;;;;78.00;47.60;;;;;;;-2.60;76.27;101107.79;215688;1254;67654;-73
2023/03/02 20:27:38;;;;;;;79.20;43.60;;;;;;;-2.66;76.01;101107.70;215775;1256;61264;-74
2023/03/02 20:32:31;;;;;;;91.70;53.30;;;;;;;-2.71;76.10;101105.69;215699;1254;61348;-74
2023/03/02 20:37:24;;;;;;;88.00;53.60;;;;;;;-2.73;76.28;101101.40;215820;1254;61256;-73
2023/03/02 20:42:17;;;;;;;98.60;57.00;;;;;;;-2.76;76.70;101096.23;215735;1258;61284;-74
2023/03/02 20:47:13;;;;;;;84.70;52.80;;;;;;;-2.79;76.34;101092.81;215786;1254;61219;-73
2023/03/02 20:52:08;;;;;;;87.80;55.30;;;;;;;-2.84;76.35;101085.11;215622;1257;61296;-73
2023/03/02 20:57:04;;;;;;;88.30;52.50;;;;;;;-2.87;76.56;101078.30;215937;1254;72652;-73
2023/03/02 21:01:58;;;;;;;81.80;50.70;;;;;;;-2.91;76.02;101075.59;216072;1255;73851;-73
2023/03/02 21:06:52;;;;;;;89.90;56.00;;;;;;;-2.94;76.57;101072.86;167826;1257;1016429;-74
2023/03/02 21:11:46;;;;;;;88.80;53.50;;;;;;;-2.95;76.48;101069.02;107150;1259;1073914;-74
2023/03/02 21:16:42;;;;;;;100.40;61.50;;;;;;;-2.98;76.09;101063.86;107153;1257;1016152;-74
2023/03/02 21:21:38;;;;;;;93.90;53.10;;;;;;;-3.01;76.29;101064.51;107189;1257;1070998;-74
2023/03/02 21:26:35;;;;;;;86.40;52.60;;;;;;;-3.04;76.11;101062.73;107188;1255;1051385;-73
2023/03/02 21:31:28;;;;;;;93.30;55.70;;;;;;;-3.06;76.16;101056.83;107249;1253;1016405;-74
2023/03/02 21:36:23;;;;;;;94.90;58.00;;;;;;;-3.09;76.17;101051.05;107205;1257;1016431;-74
2023/03/02 21:41:17;;;;;;;87.40;54.70;;;;;;;-3.11;76.43;101041.86;107204;1259;1067561;-74
2023/03/02 21:46:14;;;;;;;92.30;54.80;;;;;;;-3.15;76.01;101039.67;107158;1255;1018610;-73
2023/03/02 21:51:07;;;;;;;96.80;57.90;;;;;;;-3.18;76.28;101037.91;107147;1256;1051144;-74
2023/03/02 21:56:00;;;;;;;86.30;54.00;;;;;;;-3.19;76.32;101032.27;107166;1254;1016215;-74
2023/03/02 22:00:53;;;;;;;92.40;58.60;;;;;;;-3.21;76.22;101031.05;107139;1254;1016228;-73
2023/03/02 22:05:48;;;;;;;93.80;56.70;;;;;;;-3.22;76.08;101028.27;107170;1257;1016146;-73
2023/03/02 22:11:06;;;;;;;114.20;67.40;;;;;;;-3.25;76.11;101029.09;107037;1254;1070782;-74
2023/03/02 22:21:50;;;;;;;120.00;75.20;;;;;;;-3.20;76.39;101025.55;107201;1259;1061370;-74